Casper, WY

2:38 AM MDT on April 18, 2015 (GMT -0600)
Casper Mountain Foothills | | Change Station
CLOSE
Current Station
Personal Weather Station
Location: Casper, WY
Elevation: 5334 ft
Nearby Weather Stations

Elev 5334 ft 42.83 °N, 106.31 °W | Updated 30 seconds ago

Overcast
Overcast
36.6 °F
Feels Like 37 °F
N
0.0
Wind Variable Wind from ENE
Gusts 0.0 mph

Today
High -- | Low -- °F
--% Chance of Precip.
Yesterday
High -- | Low -- °F
Precip. -- in
6:19 AM 7:50 PM
Waning Crescent, 0% visible
Pressure 30.07 in
Visibility 4.0 miles
Clouds Scattered Clouds 300 ft
Overcast 1100 ft
Windchill 37 °F
Dew Point 34 °F
Humidity 92%
Rainfall 0.00 in
Snow Depth Not available.
UV 0 out of 12
Pollen 1.70 out of 12
Air Quality Not available.
Flu Activity Local Activity
SPECI KCPR 180812Z AUTO 16004KT 4SM BR SCT003 OVC011 03/02 A3007 RMK AO2 T00280022

More Conditions Fewer Conditions

Pressure 30.07 in
Visibility 4.0 miles
Clouds Scattered Clouds 300 ft
Overcast 1100 ft
Windchill 37 °F
Dew Point 34 °F
Humidity 92%
Rainfall 0.00 in
Snow Depth Not available.
UV 0 out of 12
Pollen 1.70 out of 12
Air Quality Not available.
Flu Activity Local Activity
SPECI KCPR 180812Z AUTO 16004KT 4SM BR SCT003 OVC011 03/02 A3007 RMK AO2 T00280022

More Conditions Fewer Conditions

10-Day Weather Forecast

Almanac

Astronomy

Apr. 18, 2015 Rise Set
Actual Time
Civil Twilight
Nautical Twilight
Astronomical Twilight
Moon
Length of Visible Light
Length of Day
Tomorrow will be .
, % of the Moon is Illuminated

Today's Extremes

State Highs State Lows

Community

WunderPhotos

Upload Photos

1,814,345 photos uploaded!

WunderBlogs® & News

Nearby

Air Quality

  Air Quality AQ Index Pollutant
Not available.

Snow Depth

Station Depth Elevation

Earthquake Activity

City Distance Mag. Time & Date
Minimum magnitude displayed is 2.5.

Coastal Water Temperatures

Place Temperature

Stations

Nearby Weather Stations

Station Location Temp. Windchill Dew Point Humidity Wind Precip. Elev Updated Type